This is the latest recevied weather packets stored in our database for station/object VA7IS. If no packets are shown the sender has not sent any weather packets the latest 10 day(s).
| Time | Temp. | Humidity | Pressure | Rain* | Wind** | Luminosity | Snow |
|---|---|---|---|---|---|---|---|
| 1778017204 | 20.56° C | 54% | 1013.4 hPa | 0 mm | - | - | - |
| 1778015704 | 20° C | 55% | 1013.4 hPa | 0 mm | - | - | - |
| 1778015404 | 20° C | 54% | 1013.4 hPa | 0 mm | - | - | - |
| 1778013304 | 19.44° C | 55% | 1013.8 hPa | 0 mm | - | - | - |
| 1778013004 | 19.44° C | 55% | 1013.8 hPa | 0 mm | - | - | - |
| 1778011804 | 20° C | 54% | 1013.7 hPa | 0 mm | - | - | - |
| 1778008204 | 17.78° C | 45% | 1013.9 hPa | 0 mm | - | - | - |
| 1778007304 | 17.22° C | 47% | 1014 hPa | 0 mm | - | - | - |
| 1778006704 | 17.22° C | 47% | 1014 hPa | 0 mm | - | - | - |
| 1778002504 | 17.22° C | 49% | 1013.7 hPa | 0 mm | - | - | - |
| 1778001903 | 17.78° C | 53% | 1013.7 hPa | 0 mm | - | - | - |
| 1778000403 | 17.22° C | 48% | 1013.8 hPa | 0 mm | - | - | - |
| 1777998304 | 16.11° C | 40% | 1013.7 hPa | 0 mm | - | - | - |
| 1777998003 | 16.11° C | 41% | 1013.7 hPa | 0 mm | - | - | - |
| 1777997403 | 16.11° C | 40% | 1013.6 hPa | 0 mm | - | - | - |
| 1777994704 | 16.11° C | 32% | 1013.5 hPa | 0 mm | - | - | - |
| 1777993504 | 14.44° C | 3% | 1013.4 hPa | 0 mm | - | - | - |
| 1777991704 | 13.33° C | 1% | 1013 hPa | 0 mm | - | - | - |
| 1777987503 | 12.78° C | 7% | 1012.3 hPa | 0 mm | - | - | - |
| 1777986303 | 13.33° C | 35% | 1012.1 hPa | 0 mm | - | - | - |
| 1777984504 | 13.33° C | 42% | 1011.7 hPa | 0 mm | - | - | - |
| 1777983904 | 13.33° C | 38% | 1011.7 hPa | 0 mm | - | - | - |
| 1777983603 | 13.33° C | 38% | 1011.7 hPa | 0 mm | - | - | - |
| 1777976104 | 15° C | 51% | 1010.3 hPa | 0 mm | - | - | - |
| 1777974005 | 15.56° C | 55% | 1009.8 hPa | 0 mm | - | - | - |
* Rain latest hour (hover to see other rain measurements)
** Current wind speed in m/s (hover to see current wind gust speed)